createdAt,value
2023-03-15T00:00:54.622Z,98221.06
2023-03-15T00:03:22.010Z,98224.31
2023-03-15T00:05:50.133Z,98229.41
2023-03-15T00:08:17.066Z,98231.88
2023-03-15T00:10:45.590Z,98241.03
2023-03-15T00:13:12.522Z,98244.28
2023-03-15T00:15:52.405Z,98243.47
2023-03-15T00:18:20.617Z,98249.38
2023-03-15T00:20:48.165Z,98268.88
2023-03-15T00:23:15.824Z,98275.28
2023-03-15T00:25:46.989Z,98283.53
2023-03-15T00:28:13.615Z,98298.25
2023-03-15T00:30:40.271Z,98300.38
2023-03-15T00:33:06.764Z,98304.69
2023-03-15T00:35:34.075Z,98308.91
2023-03-15T00:38:00.849Z,98307.28
2023-03-15T00:40:27.579Z,98309.97
2023-03-15T00:42:54.004Z,98309.66
2023-03-15T00:45:21.845Z,98309.34
2023-03-15T00:47:52.940Z,98311.94
2023-03-15T00:50:20.363Z,98310.31
2023-03-15T00:52:46.800Z,98312.25
2023-03-15T00:55:16.905Z,98312.00
2023-03-15T00:57:45.032Z,98318.34
2023-03-15T01:00:15.052Z,98330.13
2023-03-15T01:02:41.638Z,98331.97
2023-03-15T01:05:09.482Z,98333.59
2023-03-15T01:07:36.278Z,98344.13
2023-03-15T01:10:05.142Z,98345.91
2023-03-15T01:12:32.658Z,98347.81
2023-03-15T01:15:00.364Z,98363.06
2023-03-15T01:17:27.072Z,98351.25
2023-03-15T01:19:53.459Z,98358.22
2023-03-15T01:22:20.393Z,98360.25
2023-03-15T01:24:46.764Z,98354.59
2023-03-15T01:27:13.389Z,98363.38
2023-03-15T01:29:39.928Z,98370.81
2023-03-15T01:32:07.090Z,98365.47
2023-03-15T01:34:34.107Z,98368.72
2023-03-15T01:37:00.897Z,98367.66
2023-03-15T01:39:27.325Z,98368.72
2023-03-15T01:41:53.791Z,98375.09
2023-03-15T01:44:20.586Z,98375.69
2023-03-15T01:46:47.316Z,98378.38
2023-03-15T01:49:25.536Z,98376.97
2023-03-15T01:52:01.477Z,98384.19
2023-03-15T01:54:40.647Z,98382.91
2023-03-15T01:57:12.596Z,98390.69
2023-03-15T01:59:42.152Z,98394.19
2023-03-15T02:02:09.206Z,98390.94
2023-03-15T02:04:40.512Z,98397.56
2023-03-15T02:07:08.558Z,98409.25
2023-03-15T02:09:50.900Z,98407.34
2023-03-15T02:12:18.655Z,98410.25
2023-03-15T02:14:45.871Z,98414.78
2023-03-15T02:17:12.454Z,98414.56
2023-03-15T02:19:52.955Z,98410.56
2023-03-15T02:22:32.215Z,98411.38
2023-03-15T02:25:14.459Z,98407.66
2023-03-15T02:27:41.060Z,98420.78
2023-03-15T02:30:08.408Z,98418.09
2023-03-15T02:32:35.191Z,98416.72
2023-03-15T02:35:01.596Z,98418.34
2023-03-15T02:37:28.081Z,98422.09
2023-03-15T02:39:54.557Z,98424.66
2023-03-15T02:42:21.163Z,98420.88
2023-03-15T02:44:49.224Z,98428.91
2023-03-15T02:47:24.932Z,98434.50
2023-03-15T02:49:53.865Z,98442.53
2023-03-15T02:52:21.892Z,98448.69
2023-03-15T02:54:48.940Z,98455.66
2023-03-15T02:57:17.672Z,98460.44
2023-03-15T02:59:44.339Z,98468.44
2023-03-15T03:02:12.044Z,98467.59
2023-03-15T03:04:39.093Z,98475.38
2023-03-15T03:07:05.895Z,98475.81
2023-03-15T03:09:32.348Z,98484.34
2023-03-15T03:11:58.850Z,98490.75
2023-03-15T03:14:25.302Z,98491.81
2023-03-15T03:16:52.494Z,98490.19
2023-03-15T03:19:18.937Z,98505.41
2023-03-15T03:21:45.348Z,98512.06
2023-03-15T03:24:16.026Z,98502.66
2023-03-15T03:26:45.737Z,98508.31
2023-03-15T03:29:12.441Z,98516.09
2023-03-15T03:31:39.277Z,98516.94
2023-03-15T03:34:05.723Z,98516.94
2023-03-15T03:36:32.173Z,98529.47
2023-03-15T03:38:59.557Z,98535.66
2023-03-15T03:41:26.284Z,98538.91
2023-03-15T03:43:53.091Z,98534.13
2023-03-15T03:46:19.585Z,98542.72
2023-03-15T03:48:46.134Z,98554.47
2023-03-15T03:51:12.518Z,98551.78
2023-03-15T03:53:38.928Z,98549.72
2023-03-15T03:56:06.355Z,98563.09
2023-03-15T03:58:32.981Z,98571.13
2023-03-15T04:00:59.810Z,98571.13
2023-03-15T04:03:29.089Z,98576.47
2023-03-15T04:05:59.870Z,98575.88
2023-03-15T04:08:27.138Z,98576.13
2023-03-15T04:10:55.720Z,98583.56
2023-03-15T04:13:23.276Z,98584.84
2023-03-15T04:15:50.337Z,98588.56
2023-03-15T04:18:17.409Z,98588.56
2023-03-15T04:20:48.366Z,98600.31
2023-03-15T04:23:16.533Z,98603.50
2023-03-15T04:25:42.979Z,98608.03
2023-03-15T04:28:13.249Z,98608.84
2023-03-15T04:30:39.726Z,98617.09
2023-03-15T04:33:06.174Z,98615.13
2023-03-15T04:35:35.201Z,98617.00
2023-03-15T04:38:02.225Z,98615.94
2023-03-15T04:40:28.856Z,98618.88
2023-03-15T04:42:56.028Z,98618.06
2023-03-15T04:45:26.836Z,98624.69
2023-03-15T04:47:54.412Z,98623.06
2023-03-15T04:50:22.158Z,98626.78
2023-03-15T04:52:49.137Z,98626.28
2023-03-15T04:55:15.877Z,98626.78
2023-03-15T04:57:42.361Z,98625.38
2023-03-15T05:00:11.957Z,98633.63
2023-03-15T05:02:41.647Z,98621.56
2023-03-15T05:05:09.682Z,98623.31
2023-03-15T05:07:36.807Z,98618.22
2023-03-15T05:10:04.727Z,98617.16
2023-03-15T05:12:32.280Z,98615.06
2023-03-15T05:14:58.773Z,98614.59
2023-03-15T05:17:25.233Z,98608.88
2023-03-15T05:19:51.835Z,98611.81
2023-03-15T05:22:18.981Z,98608.31
2023-03-15T05:24:45.453Z,98616.00
2023-03-15T05:27:13.559Z,98614.72
2023-03-15T05:29:40.033Z,98616.00
2023-03-15T05:32:06.705Z,98617.03
2023-03-15T05:34:33.126Z,98611.94
2023-03-15T05:36:59.923Z,98624.25
2023-03-15T05:39:26.412Z,98627.97
2023-03-15T05:41:53.023Z,98630.41
2023-03-15T05:44:19.538Z,98622.06
2023-03-15T05:46:45.976Z,98624.97
2023-03-15T05:49:12.569Z,98637.06
2023-03-15T05:51:38.998Z,98639.47
2023-03-15T05:54:05.441Z,98636.00
2023-03-15T05:56:31.900Z,98636.81
2023-03-15T05:58:58.322Z,98637.38
2023-03-15T06:01:24.838Z,98636.69
2023-03-15T06:03:51.225Z,98644.56
2023-03-15T06:06:17.592Z,98649.00
2023-03-15T06:08:44.068Z,98638.03
2023-03-15T06:11:10.414Z,98644.31
2023-03-15T06:13:36.961Z,98643.84
2023-03-15T06:16:04.989Z,98650.09
2023-03-15T06:18:31.439Z,98648.59
2023-03-15T06:20:57.971Z,98657.53
2023-03-15T06:23:24.348Z,98659.78
2023-03-15T06:25:50.829Z,98651.19
2023-03-15T06:28:17.366Z,98657.88
2023-03-15T06:30:43.838Z,98662.25
2023-03-15T06:33:10.390Z,98660.00
2023-03-15T06:35:37.024Z,98667.00
2023-03-15T06:38:03.688Z,98664.78
2023-03-15T06:40:30.139Z,98668.41
2023-03-15T06:42:56.526Z,98676.47
2023-03-15T06:45:22.945Z,98668.25
2023-03-15T06:47:49.449Z,98672.97
2023-03-15T06:50:15.983Z,98666.00
2023-03-15T06:52:42.844Z,98673.47
2023-03-15T06:55:12.493Z,98674.59
2023-03-15T06:57:39.029Z,98675.41
2023-03-15T07:00:11.176Z,98671.53
2023-03-15T07:02:37.782Z,98675.66
2023-03-15T07:05:05.436Z,98672.31
2023-03-15T07:07:31.936Z,98672.94
2023-03-15T07:09:58.358Z,98680.09
2023-03-15T07:12:24.781Z,98678.53
2023-03-15T07:14:51.225Z,98681.22
2023-03-15T07:19:59.573Z,98681.00
2023-03-15T07:22:29.246Z,98681.00
2023-03-15T07:24:55.573Z,98688.63
2023-03-15T07:27:22.116Z,98689.50
2023-03-15T07:29:48.674Z,98684.94
2023-03-15T07:32:15.276Z,98692.19
2023-03-15T07:34:41.789Z,98689.25
2023-03-15T07:37:08.344Z,98702.16
2023-03-15T07:39:34.828Z,98706.06
2023-03-15T07:42:01.256Z,98700.34
2023-03-15T07:44:27.638Z,98711.91
2023-03-15T07:46:55.815Z,98704.63
2023-03-15T07:49:22.419Z,98714.03
2023-03-15T07:51:48.801Z,98708.47
2023-03-15T07:54:15.299Z,98718.72
2023-03-15T07:56:41.742Z,98715.03
2023-03-15T07:59:08.569Z,98715.91
2023-03-15T08:01:35.041Z,98716.66
2023-03-15T08:04:01.397Z,98712.88
2023-03-15T08:06:28.032Z,98709.50
2023-03-15T08:08:54.495Z,98713.13
2023-03-15T08:11:20.925Z,98713.25
2023-03-15T08:13:47.300Z,98715.00
2023-03-15T08:16:13.809Z,98711.31
2023-03-15T08:18:40.418Z,98718.84
2023-03-15T08:21:06.774Z,98723.41
2023-03-15T08:23:33.138Z,98733.69
2023-03-15T08:25:59.602Z,98721.91
2023-03-15T08:28:26.051Z,98731.84
2023-03-15T08:30:52.529Z,98724.28
2023-03-15T08:33:18.987Z,98727.91
2023-03-15T08:35:45.549Z,98732.28
2023-03-15T08:38:12.288Z,98730.28
2023-03-15T08:40:39.864Z,98731.34
2023-03-15T08:43:06.427Z,98733.25
2023-03-15T08:45:37.469Z,98730.16
2023-03-15T08:48:09.310Z,98724.19
2023-03-15T08:50:36.737Z,98732.31
2023-03-15T08:53:03.155Z,98728.69
2023-03-15T08:55:29.518Z,98733.31
2023-03-15T08:57:56.046Z,98732.25
2023-03-15T09:00:25.552Z,98729.31
2023-03-15T09:02:52.073Z,98734.03
2023-03-15T09:05:19.526Z,98731.25
2023-03-15T09:07:46.471Z,98740.50
2023-03-15T09:10:15.348Z,98751.53
2023-03-15T09:12:43.385Z,98752.34
2023-03-15T09:15:11.901Z,98747.56
2023-03-15T09:17:39.566Z,98749.28
2023-03-15T09:20:14.556Z,98758.53
2023-03-15T09:22:42.617Z,98757.56
2023-03-15T09:25:09.706Z,98750.91
2023-03-15T09:27:36.816Z,98760.94
2023-03-15T09:30:03.857Z,98755.53
2023-03-15T09:32:30.320Z,98761.56
2023-03-15T09:34:57.257Z,98752.41
2023-03-15T09:37:23.846Z,98765.38
2023-03-15T09:39:51.866Z,98772.88
2023-03-15T09:42:50.447Z,98775.28
2023-03-15T09:45:41.135Z,98767.72
2023-03-15T09:48:25.860Z,98766.28
2023-03-15T09:51:17.981Z,98764.91
2023-03-15T09:53:58.759Z,98772.97
2023-03-15T09:56:28.471Z,98772.69
2023-03-15T09:58:59.512Z,98767.75
2023-03-15T10:01:32.288Z,98771.72
2023-03-15T10:04:05.811Z,98773.81
2023-03-15T10:06:37.720Z,98766.47
2023-03-15T10:09:13.860Z,98766.19
2023-03-15T10:12:06.021Z,98763.78
2023-03-15T10:14:40.138Z,98772.41
2023-03-15T10:17:12.041Z,98767.03
2023-03-15T10:19:50.921Z,98766.00
2023-03-15T10:22:58.505Z,98770.03
2023-03-15T10:25:28.129Z,98762.22
2023-03-15T10:27:59.136Z,98764.94
2023-03-15T10:30:29.210Z,98772.00
2023-03-15T10:33:20.456Z,98767.16
2023-03-15T10:35:47.602Z,98768.25
2023-03-15T10:38:20.533Z,98757.75
2023-03-15T10:40:58.103Z,98759.69
2023-03-15T10:43:29.498Z,98755.50
2023-03-15T10:46:11.630Z,98765.84
2023-03-15T10:48:59.382Z,98758.63
2023-03-15T10:51:31.925Z,98745.91
2023-03-15T10:54:15.835Z,98741.84
2023-03-15T10:56:49.928Z,98750.75
2023-03-15T10:59:24.179Z,98743.75
2023-03-15T11:02:07.939Z,98755.59
2023-03-15T11:04:34.615Z,98748.34
2023-03-15T11:07:03.790Z,98754.81
2023-03-15T11:09:53.850Z,98762.09
2023-03-15T11:12:25.522Z,98762.56
2023-03-15T11:14:57.830Z,98758.66
2023-03-15T11:17:28.386Z,98761.28
2023-03-15T11:19:59.314Z,98754.00
2023-03-15T11:22:26.018Z,98757.00
2023-03-15T11:24:54.704Z,98757.59
2023-03-15T11:27:24.073Z,98756.47
2023-03-15T11:29:56.736Z,98747.31
2023-03-15T11:32:26.467Z,98748.41
2023-03-15T11:34:52.873Z,98754.91
2023-03-15T11:37:22.710Z,98753.03
2023-03-15T11:40:08.810Z,98746.31
2023-03-15T11:43:06.534Z,98745.19
2023-03-15T11:45:43.076Z,98746.25
2023-03-15T11:48:26.455Z,98745.69
2023-03-15T11:50:54.367Z,98745.16
2023-03-15T11:53:23.514Z,98741.91
2023-03-15T11:55:53.740Z,98746.81
2023-03-15T11:58:44.445Z,98746.25
2023-03-15T12:01:23.946Z,98758.63
2023-03-15T12:03:50.656Z,98751.06
2023-03-15T12:06:17.144Z,98758.63
2023-03-15T12:08:55.453Z,98753.75
2023-03-15T12:11:21.769Z,98761.81
2023-03-15T12:13:57.332Z,98762.91
2023-03-15T12:16:27.269Z,98754.81
2023-03-15T12:18:58.478Z,98758.06
2023-03-15T12:21:38.007Z,98764.53
2023-03-15T12:24:07.210Z,98760.78
2023-03-15T12:26:50.031Z,98766.16
2023-03-15T12:29:22.558Z,98760.78
2023-03-15T12:32:04.299Z,98760.50
2023-03-15T12:34:37.730Z,98759.16
2023-03-15T12:37:09.241Z,98763.47
2023-03-15T12:39:48.409Z,98752.16
2023-03-15T12:42:38.937Z,98755.41
2023-03-15T12:45:17.541Z,98762.94
2023-03-15T12:47:46.854Z,98766.75
2023-03-15T12:50:45.737Z,98761.34
2023-03-15T12:53:27.229Z,98774.78
2023-03-15T12:56:02.889Z,98782.81
2023-03-15T12:58:37.128Z,98780.47
2023-03-15T13:01:06.121Z,98791.09
2023-03-15T13:03:35.731Z,98788.84
2023-03-15T13:06:20.898Z,98790.50
2023-03-15T13:09:19.036Z,98807.94
2023-03-15T13:12:00.908Z,98809.25
2023-03-15T13:14:38.212Z,98803.78
2023-03-15T13:17:30.244Z,98798.88
2023-03-15T13:20:16.211Z,98794.03
2023-03-15T13:23:08.759Z,98779.44
2023-03-15T13:25:52.496Z,98778.03
2023-03-15T13:28:24.863Z,98777.28
2023-03-15T13:30:54.238Z,98779.69
2023-03-15T13:33:20.995Z,98781.72
2023-03-15T13:36:14.943Z,98789.72
2023-03-15T13:38:48.491Z,98785.56
2023-03-15T13:41:35.181Z,98782.69
2023-03-15T13:44:12.754Z,98788.06
2023-03-15T13:46:40.184Z,98779.91
2023-03-15T13:49:06.666Z,98789.53
2023-03-15T13:51:35.825Z,98783.63
2023-03-15T13:54:32.426Z,98790.88
2023-03-15T13:57:12.627Z,98793.41
2023-03-15T14:00:10.462Z,98800.53
2023-03-15T14:02:51.800Z,98804.50
2023-03-15T14:05:27.192Z,98801.47
2023-03-15T14:08:04.178Z,98800.34
2023-03-15T14:10:36.034Z,98800.88
2023-03-15T14:13:22.552Z,98801.56
2023-03-15T14:15:49.132Z,98798.38
2023-03-15T14:18:22.079Z,98806.25
2023-03-15T14:21:00.677Z,98794.75
2023-03-15T14:23:29.359Z,98796.69
2023-03-15T14:26:03.505Z,98792.94
2023-03-15T14:28:31.795Z,98788.75
2023-03-15T14:30:59.783Z,98782.47
2023-03-15T14:33:31.509Z,98784.06
2023-03-15T14:36:04.495Z,98782.59
2023-03-15T14:38:34.812Z,98785.47
2023-03-15T14:41:33.163Z,98786.47
2023-03-15T14:44:05.748Z,98783.13
2023-03-15T14:46:32.314Z,98790.56
2023-03-15T14:48:58.698Z,98792.63
2023-03-15T14:51:25.675Z,98795.84
2023-03-15T14:53:56.105Z,98810.56
2023-03-15T14:56:23.789Z,98827.19
2023-03-15T14:58:50.499Z,98829.38
2023-03-15T15:01:22.573Z,98833.28
2023-03-15T15:03:54.908Z,98829.69
2023-03-15T15:06:21.969Z,98825.16
2023-03-15T15:08:52.342Z,98826.69
2023-03-15T15:11:18.791Z,98818.72
2023-03-15T15:13:45.445Z,98815.31
2023-03-15T15:16:11.948Z,98823.09
2023-03-15T15:18:38.533Z,98817.66
2023-03-15T15:21:16.256Z,98824.97
2023-03-15T15:23:57.535Z,98825.78
2023-03-15T15:26:29.188Z,98828.78
2023-03-15T15:28:56.662Z,98839.84
2023-03-15T15:31:25.103Z,98837.16
2023-03-15T15:33:55.734Z,98842.28
2023-03-15T15:36:39.257Z,98849.97
2023-03-15T15:39:15.984Z,98851.44
2023-03-15T15:41:42.423Z,98848.31
2023-03-15T15:44:18.173Z,98863.47
2023-03-15T15:46:44.760Z,98859.47
2023-03-15T15:49:11.359Z,98856.59
2023-03-15T15:51:45.861Z,98860.25
2023-03-15T15:54:18.135Z,98857.09
2023-03-15T15:56:53.616Z,98855.47
2023-03-15T15:59:20.426Z,98861.97
2023-03-15T16:01:59.991Z,98857.25
2023-03-15T16:04:28.293Z,98860.13
2023-03-15T16:06:58.670Z,98866.78
2023-03-15T16:09:28.020Z,98866.06
2023-03-15T16:11:55.279Z,98864.59
2023-03-15T16:14:21.763Z,98863.88
2023-03-15T16:16:48.575Z,98864.50
2023-03-15T16:19:15.075Z,98862.72
2023-03-15T16:21:47.465Z,98866.72
2023-03-15T16:24:30.624Z,98865.06
2023-03-15T16:27:08.285Z,98873.13
2023-03-15T16:29:48.688Z,98869.97
2023-03-15T16:32:26.732Z,98870.53
2023-03-15T16:35:01.046Z,98879.31
2023-03-15T16:37:31.777Z,98869.41
2023-03-15T16:40:01.569Z,98883.13
2023-03-15T16:42:28.249Z,98879.22
2023-03-15T16:44:54.763Z,98885.75
2023-03-15T16:47:21.432Z,98895.19
2023-03-15T16:49:48.059Z,98886.06
2023-03-15T16:52:15.878Z,98893.03
2023-03-15T16:54:43.324Z,98893.81
2023-03-15T16:57:21.776Z,98897.78
2023-03-15T16:59:48.637Z,98897.78
2023-03-15T17:02:27.366Z,98892.75
2023-03-15T17:04:53.832Z,98883.38
2023-03-15T17:07:36.178Z,98892.50
2023-03-15T17:10:08.268Z,98899.72
2023-03-15T17:12:36.151Z,98904.28
2023-03-15T17:15:03.308Z,98913.06
2023-03-15T17:17:33.115Z,98917.06
2023-03-15T17:20:00.195Z,98918.84
2023-03-15T17:22:26.730Z,98922.25
2023-03-15T17:24:54.028Z,98925.94
2023-03-15T17:27:25.214Z,98923.97
2023-03-15T17:29:51.696Z,98926.81
2023-03-15T17:32:18.159Z,98929.97
2023-03-15T17:34:47.147Z,98929.63
2023-03-15T17:37:15.305Z,98935.50
2023-03-15T17:39:42.766Z,98938.41
2023-03-15T17:42:14.062Z,98937.84
2023-03-15T17:44:41.194Z,98939.13
2023-03-15T17:47:12.392Z,98941.00
2023-03-15T17:49:38.933Z,98939.59
2023-03-15T17:52:14.248Z,98939.84
2023-03-15T17:54:40.901Z,98946.53
2023-03-15T17:57:07.414Z,98944.06
2023-03-15T17:59:33.826Z,98947.78
2023-03-15T18:02:00.397Z,98950.97
2023-03-15T18:04:26.884Z,98954.72
2023-03-15T18:06:53.982Z,98950.63
2023-03-15T18:09:22.145Z,98957.28
2023-03-15T18:11:48.760Z,98952.97
2023-03-15T18:14:16.174Z,98948.69
2023-03-15T18:16:43.800Z,98959.28
2023-03-15T18:19:10.472Z,98961.41
2023-03-15T18:21:37.452Z,98968.84
2023-03-15T18:24:03.993Z,98966.91
2023-03-15T18:26:30.639Z,98967.38
2023-03-15T18:28:57.072Z,98971.09
2023-03-15T18:31:25.507Z,98976.47
2023-03-15T18:33:52.653Z,98975.41
2023-03-15T18:36:19.602Z,98967.84
2023-03-15T18:38:46.377Z,98967.50
2023-03-15T18:41:24.980Z,98964.00
2023-03-15T18:43:52.184Z,98967.16
2023-03-15T18:46:24.583Z,98969.75
2023-03-15T18:48:53.436Z,98974.53
2023-03-15T18:51:22.901Z,98973.13
2023-03-15T18:53:49.540Z,98983.03
2023-03-15T18:56:24.031Z,98986.53
2023-03-15T18:58:52.035Z,98985.94
2023-03-15T19:01:22.332Z,98984.31
2023-03-15T19:03:50.697Z,98984.56
2023-03-15T19:06:18.438Z,98978.41
2023-03-15T19:08:44.979Z,98983.97
2023-03-15T19:11:11.478Z,98977.47
2023-03-15T19:13:38.150Z,98990.06
2023-03-15T19:16:04.777Z,98975.00
2023-03-15T19:18:32.666Z,98984.09
2023-03-15T19:20:59.314Z,98980.34
2023-03-15T19:23:30.573Z,98987.00
2023-03-15T19:25:57.469Z,98982.72
2023-03-15T19:28:23.902Z,98980.25
2023-03-15T19:30:50.419Z,98983.41
2023-03-15T19:33:16.939Z,98975.34
2023-03-15T19:35:44.092Z,98981.78
2023-03-15T19:38:11.051Z,98992.97
2023-03-15T19:40:37.700Z,99002.50
2023-03-15T19:43:04.156Z,98999.72
2023-03-15T19:45:30.915Z,99005.41
2023-03-15T19:47:57.481Z,99007.53
2023-03-15T19:50:24.102Z,99013.94
2023-03-15T19:52:50.623Z,99012.50
2023-03-15T19:55:19.563Z,99011.50
2023-03-15T19:57:46.730Z,99006.34
2023-03-15T20:00:16.043Z,99012.75
2023-03-15T20:02:44.155Z,99016.47
2023-03-15T20:05:12.253Z,99023.94
2023-03-15T20:07:39.168Z,99023.13
2023-03-15T20:10:08.520Z,99023.13
2023-03-15T20:12:35.883Z,99029.75
2023-03-15T20:15:02.687Z,99023.25
2023-03-15T20:17:29.132Z,99028.22
2023-03-15T20:19:55.598Z,99024.59
2023-03-15T20:22:22.089Z,99030.19
2023-03-15T20:24:50.062Z,99021.59
2023-03-15T20:27:16.827Z,99018.91
2023-03-15T20:29:43.310Z,99023.69
2023-03-15T20:32:10.617Z,99031.72
2023-03-15T20:34:39.508Z,99023.88
2023-03-15T20:37:06.498Z,99027.38
2023-03-15T20:39:33.389Z,99027.63
2023-03-15T20:41:59.801Z,99023.78
2023-03-15T20:44:26.230Z,99031.81
2023-03-15T20:46:56.657Z,99037.38
2023-03-15T20:49:23.106Z,99034.13
2023-03-15T20:51:49.558Z,99039.72
2023-03-15T20:54:15.951Z,99040.53
2023-03-15T20:56:42.401Z,99036.91
2023-03-15T20:59:08.858Z,99033.63
2023-03-15T21:01:35.359Z,99041.06
2023-03-15T21:04:01.814Z,99039.44
2023-03-15T21:06:28.209Z,99042.09
2023-03-15T21:08:54.612Z,99049.78
2023-03-15T21:11:21.377Z,99052.81
2023-03-15T21:13:47.930Z,99044.22
2023-03-15T21:16:14.416Z,99040.34
2023-03-15T21:18:47.588Z,99047.56
2023-03-15T21:21:14.182Z,99044.06
2023-03-15T21:23:41.941Z,99048.03
2023-03-15T21:26:10.809Z,99053.59
2023-03-15T21:28:37.504Z,99051.38
2023-03-15T21:31:03.978Z,99043.81
2023-03-15T21:33:31.326Z,99048.13
2023-03-15T21:35:59.295Z,99042.19
2023-03-15T21:38:26.988Z,99043.81
2023-03-15T21:40:58.286Z,99049.16
2023-03-15T21:43:31.854Z,99044.25
2023-03-15T21:46:07.165Z,99041.56
2023-03-15T21:48:34.710Z,99050.06
2023-03-15T21:51:04.206Z,99046.81
2023-03-15T21:53:33.306Z,99040.84
2023-03-15T21:56:00.235Z,99041.91
2023-03-15T21:58:28.042Z,99043.59
2023-03-15T22:01:06.059Z,99052.69
2023-03-15T22:03:34.190Z,99050.25
2023-03-15T22:06:00.848Z,99048.03
2023-03-15T22:08:28.009Z,99051.13
2023-03-15T22:10:55.770Z,99052.75
2023-03-15T22:13:22.321Z,99044.16
2023-03-15T22:15:49.315Z,99059.38
2023-03-15T22:18:15.799Z,99063.91
2023-03-15T22:20:42.233Z,99053.22
2023-03-15T22:25:55.894Z,99052.50
2023-03-15T22:28:24.957Z,99063.19
2023-03-15T22:30:53.500Z,99068.31
2023-03-15T22:33:24.421Z,99063.19
2023-03-15T22:35:58.491Z,99063.41
2023-03-15T22:38:26.184Z,99060.13
2023-03-15T22:41:01.317Z,99063.28
2023-03-15T22:43:28.040Z,99065.31
2023-03-15T22:45:54.500Z,99056.72
2023-03-15T22:48:21.245Z,99051.03
2023-03-15T22:50:47.695Z,99055.16
2023-03-15T22:53:14.183Z,99052.16
2023-03-15T22:55:40.622Z,99053.97
2023-03-15T22:58:07.052Z,99051.69
2023-03-15T23:00:33.817Z,99049.81
2023-03-15T23:03:00.202Z,99045.88
2023-03-15T23:05:26.547Z,99045.06
2023-03-15T23:07:53.096Z,99034.84
2023-03-15T23:10:19.655Z,99040.19
2023-03-15T23:12:46.200Z,99040.03
2023-03-15T23:15:14.704Z,99041.06
2023-03-15T23:17:47.064Z,99043.28
2023-03-15T23:20:15.715Z,99040.59
2023-03-15T23:22:42.850Z,99035.25
2023-03-15T23:25:10.602Z,99023.19
2023-03-15T23:27:37.286Z,99025.63
2023-03-15T23:30:05.249Z,99022.81
2023-03-15T23:32:31.723Z,99028.59
2023-03-15T23:34:58.242Z,99030.09
2023-03-15T23:37:24.622Z,99023.09
2023-03-15T23:39:53.338Z,99026.22
2023-03-15T23:42:19.868Z,99024.59
2023-03-15T23:44:46.308Z,99020.88
2023-03-15T23:47:12.716Z,99022.50
2023-03-15T23:49:39.101Z,99018.78
2023-03-15T23:52:06.124Z,99014.28
2023-03-15T23:54:39.973Z,99032.16
2023-03-15T23:57:12.214Z,99022.16
2023-03-15T23:59:39.843Z,99026.69
